createdAt,value
2017-10-09T00:00:47.033Z,0
2017-10-09T00:01:47.343Z,0
2017-10-09T00:02:47.367Z,0
2017-10-09T00:03:47.021Z,0
2017-10-09T00:04:47.017Z,0
2017-10-09T00:05:46.420Z,0
2017-10-09T00:06:46.708Z,0
2017-10-09T00:07:46.708Z,0
2017-10-09T00:08:46.700Z,0
2017-10-09T00:09:47.004Z,0
2017-10-09T00:10:47.319Z,0
2017-10-09T00:11:46.406Z,0
2017-10-09T00:12:46.703Z,0
2017-10-09T00:13:47.007Z,0
2017-10-09T00:14:46.690Z,0
2017-10-09T00:15:49.471Z,0
2017-10-09T00:16:47.318Z,0
2017-10-09T00:17:46.700Z,0
2017-10-09T00:18:46.994Z,0
2017-10-09T00:19:46.682Z,0
2017-10-09T00:20:46.744Z,0
2017-10-09T00:21:47.301Z,0
2017-10-09T00:22:47.294Z,0
2017-10-09T00:23:46.990Z,0
2017-10-09T00:24:47.307Z,0
2017-10-09T00:25:46.994Z,0
2017-10-09T00:26:46.981Z,0
2017-10-09T00:27:47.315Z,0
2017-10-09T00:28:46.388Z,0
2017-10-09T00:29:46.977Z,0
2017-10-09T00:30:48.831Z,0
2017-10-09T00:31:46.991Z,0
2017-10-09T00:32:47.303Z,0
2017-10-09T00:33:47.311Z,0
2017-10-09T00:34:47.271Z,0
2017-10-09T00:35:47.002Z,0
2017-10-09T00:36:47.278Z,0
2017-10-09T00:37:46.652Z,0
2017-10-09T00:38:46.967Z,0
2017-10-09T00:39:46.962Z,0
2017-10-09T00:40:46.727Z,0
2017-10-09T00:41:46.349Z,0
2017-10-09T00:42:46.945Z,0
2017-10-09T00:43:46.636Z,0
2017-10-09T00:44:46.951Z,0
2017-10-09T00:45:50.106Z,0
2017-10-09T00:46:46.639Z,0
2017-10-09T00:47:46.952Z,0
2017-10-09T00:48:47.268Z,0
2017-10-09T00:49:46.322Z,0
2017-10-09T00:50:46.667Z,0
2017-10-09T00:51:46.945Z,0
2017-10-09T00:52:46.315Z,0
2017-10-09T00:53:46.312Z,0
2017-10-09T00:54:46.631Z,0
2017-10-09T00:55:47.251Z,0
2017-10-09T00:56:47.240Z,0
2017-10-09T00:57:46.930Z,0
2017-10-09T00:58:47.251Z,0
2017-10-09T00:59:47.258Z,0
2017-10-09T01:00:47.252Z,0
2017-10-09T01:01:47.277Z,0
2017-10-09T01:02:46.919Z,0
2017-10-09T01:03:46.913Z,0
2017-10-09T01:04:46.617Z,0
2017-10-09T01:05:46.953Z,0
2017-10-09T01:06:46.599Z,0
2017-10-09T01:07:47.215Z,0
2017-10-09T01:08:46.913Z,0
2017-10-09T01:09:46.905Z,0
2017-10-09T01:10:47.209Z,0
2017-10-09T01:11:46.897Z,0
2017-10-09T01:12:46.904Z,0
2017-10-09T01:13:46.897Z,0
2017-10-09T01:14:46.891Z,0
2017-10-09T01:15:46.327Z,0
2017-10-09T01:16:50.588Z,0
2017-10-09T01:17:46.891Z,0
2017-10-09T01:18:46.898Z,0
2017-10-09T01:19:46.897Z,0
2017-10-09T01:20:46.908Z,0
2017-10-09T01:21:46.891Z,0
2017-10-09T01:22:46.587Z,0
2017-10-09T01:23:46.887Z,0
2017-10-09T01:24:46.573Z,0
2017-10-09T01:25:47.188Z,0
2017-10-09T01:26:46.878Z,0
2017-10-09T01:27:46.564Z,0
2017-10-09T01:28:46.876Z,0
2017-10-09T01:29:46.867Z,0
2017-10-09T01:30:46.561Z,0
2017-10-09T01:31:46.920Z,0
2017-10-09T01:32:47.211Z,0
2017-10-09T01:33:46.883Z,0
2017-10-09T01:34:46.870Z,0
2017-10-09T01:35:47.519Z,0
2017-10-09T01:36:46.858Z,0
2017-10-09T01:37:47.171Z,0
2017-10-09T01:38:47.160Z,0
2017-10-09T01:39:46.849Z,0
2017-10-09T01:40:47.195Z,0
2017-10-09T01:41:46.853Z,0
2017-10-09T01:42:46.844Z,0
2017-10-09T01:43:46.844Z,0
2017-10-09T01:44:46.547Z,0
2017-10-09T01:45:46.554Z,0
2017-10-09T01:46:47.894Z,0
2017-10-09T01:47:47.143Z,0
2017-10-09T01:48:47.147Z,0
2017-10-09T01:49:47.151Z,0
2017-10-09T01:50:46.523Z,0
2017-10-09T01:51:46.839Z,0
2017-10-09T01:52:46.835Z,0
2017-10-09T01:53:46.830Z,0
2017-10-09T01:54:47.144Z,0
2017-10-09T01:55:47.148Z,0
2017-10-09T01:56:46.512Z,0
2017-10-09T01:57:46.819Z,0
2017-10-09T01:58:47.121Z,0
2017-10-09T01:59:47.145Z,0
2017-10-09T02:00:46.839Z,0
2017-10-09T02:01:49.558Z,0
2017-10-09T02:02:46.810Z,0
2017-10-09T02:03:46.508Z,0
2017-10-09T02:04:46.804Z,0
2017-10-09T02:05:46.500Z,0
2017-10-09T02:06:46.495Z,0
2017-10-09T02:07:47.113Z,0
2017-10-09T02:08:47.112Z,0
2017-10-09T02:09:46.483Z,0
2017-10-09T02:10:47.102Z,0
2017-10-09T02:11:46.485Z,0
2017-10-09T02:12:46.791Z,0
2017-10-09T02:13:47.094Z,0
2017-10-09T02:14:47.101Z,0
2017-10-09T02:15:46.874Z,0
2017-10-09T02:16:47.093Z,0
2017-10-09T02:17:46.965Z,0
2017-10-09T02:18:47.081Z,0
2017-10-09T02:19:46.777Z,0
2017-10-09T02:20:46.776Z,0
2017-10-09T02:21:46.762Z,0
2017-10-09T02:22:47.079Z,0
2017-10-09T02:23:46.480Z,0
2017-10-09T02:24:46.146Z,0
2017-10-09T02:25:46.765Z,0
2017-10-09T02:26:46.448Z,0
2017-10-09T02:27:46.143Z,0
2017-10-09T02:28:47.057Z,0
2017-10-09T02:29:46.750Z,0
2017-10-09T02:30:47.131Z,0
2017-10-09T02:31:46.448Z,0
2017-10-09T02:32:47.913Z,0
2017-10-09T02:33:46.748Z,0
2017-10-09T02:34:46.739Z,0
2017-10-09T02:35:46.770Z,0
2017-10-09T02:36:46.735Z,0
2017-10-09T02:37:46.741Z,0
2017-10-09T02:38:46.725Z,0
2017-10-09T02:39:46.736Z,0
2017-10-09T02:40:46.830Z,0
2017-10-09T02:41:47.027Z,0
2017-10-09T02:42:46.731Z,0
2017-10-09T02:43:46.128Z,0
2017-10-09T02:44:46.092Z,0
2017-10-09T02:45:46.793Z,0
2017-10-09T02:46:46.417Z,0
2017-10-09T02:47:51.017Z,0
2017-10-09T02:48:46.701Z,0
2017-10-09T02:49:46.395Z,0
2017-10-09T02:50:46.395Z,0
2017-10-09T02:51:46.392Z,0
2017-10-09T02:52:47.002Z,0
2017-10-09T02:53:46.391Z,0
2017-10-09T02:54:46.395Z,0
2017-10-09T02:55:46.806Z,0
2017-10-09T02:56:47.001Z,0
2017-10-09T02:57:46.688Z,0
2017-10-09T02:58:46.689Z,0
2017-10-09T02:59:46.382Z,0
2017-10-09T03:00:46.740Z,0
2017-10-09T03:01:46.390Z,0
2017-10-09T03:02:47.033Z,0
2017-10-09T03:03:46.667Z,0
2017-10-09T03:04:46.364Z,0
2017-10-09T03:05:46.737Z,0
2017-10-09T03:06:47.002Z,0
2017-10-09T03:07:46.661Z,0
2017-10-09T03:08:46.356Z,0
2017-10-09T03:09:46.668Z,0
2017-10-09T03:10:46.973Z,0
2017-10-09T03:11:46.661Z,0
2017-10-09T03:12:46.965Z,0
2017-10-09T03:13:46.973Z,0
2017-10-09T03:14:46.345Z,0
2017-10-09T03:15:46.427Z,0
2017-10-09T03:16:46.642Z,0
2017-10-09T03:17:50.971Z,0
2017-10-09T03:18:46.654Z,0
2017-10-09T03:19:46.020Z,0
2017-10-09T03:20:46.944Z,0
2017-10-09T03:21:46.944Z,0
2017-10-09T03:22:46.943Z,0
2017-10-09T03:23:46.944Z,0
2017-10-09T03:24:46.319Z,0
2017-10-09T03:25:46.077Z,0
2017-10-09T03:26:46.637Z,0
2017-10-09T03:27:46.322Z,0
2017-10-09T03:28:46.026Z,0
2017-10-09T03:29:46.925Z,0
2017-10-09T03:30:47.016Z,0
2017-10-09T03:31:46.616Z,0
2017-10-09T03:32:46.301Z,0
2017-10-09T03:33:46.348Z,0
2017-10-09T03:34:46.324Z,0
2017-10-09T03:35:46.355Z,0
2017-10-09T03:36:46.338Z,0
2017-10-09T03:37:46.597Z,0
2017-10-09T03:38:46.596Z,0
2017-10-09T03:39:46.899Z,0
2017-10-09T03:40:46.593Z,0
2017-10-09T03:41:46.591Z,0
2017-10-09T03:42:46.583Z,0
2017-10-09T03:43:46.274Z,0
2017-10-09T03:44:46.580Z,0
2017-10-09T03:45:46.625Z,0
2017-10-09T03:46:46.582Z,0
2017-10-09T03:47:46.583Z,0
2017-10-09T03:48:47.796Z,0
2017-10-09T03:49:46.882Z,0
2017-10-09T03:50:46.628Z,0
2017-10-09T03:51:46.576Z,0
2017-10-09T03:52:46.592Z,0
2017-10-09T03:53:46.868Z,0
2017-10-09T03:54:46.252Z,0
2017-10-09T03:55:46.301Z,0
2017-10-09T03:56:46.565Z,0
2017-10-09T03:57:46.870Z,0
2017-10-09T03:58:46.872Z,0
2017-10-09T03:59:46.858Z,0
2017-10-09T04:00:45.942Z,0
2017-10-09T04:01:46.561Z,0
2017-10-09T04:02:46.243Z,0
2017-10-09T04:03:47.590Z,0
2017-10-09T04:04:46.244Z,0
2017-10-09T04:05:46.255Z,0
2017-10-09T04:06:46.221Z,0
2017-10-09T04:07:46.547Z,0
2017-10-09T04:08:46.541Z,0
2017-10-09T04:09:46.530Z,0
2017-10-09T04:10:46.546Z,0
2017-10-09T04:11:46.550Z,0
2017-10-09T04:12:46.847Z,0
2017-10-09T04:13:46.821Z,0
2017-10-09T04:14:46.202Z,0
2017-10-09T04:15:45.952Z,0
2017-10-09T04:16:46.521Z,0
2017-10-09T04:17:46.514Z,0
2017-10-09T04:18:46.963Z,0
2017-10-09T04:19:46.519Z,0
2017-10-09T04:20:45.626Z,0
2017-10-09T04:21:46.507Z,0
2017-10-09T04:22:46.510Z,0
2017-10-09T04:23:46.509Z,0
2017-10-09T04:24:46.196Z,0
2017-10-09T04:25:46.810Z,0
2017-10-09T04:26:45.868Z,0
2017-10-09T04:27:46.497Z,0
2017-10-09T04:28:46.795Z,0
2017-10-09T04:29:46.787Z,0
2017-10-09T04:30:46.512Z,0
2017-10-09T04:31:46.196Z,0
2017-10-09T04:32:46.472Z,0
2017-10-09T04:33:46.849Z,0
2017-10-09T04:34:46.162Z,0
2017-10-09T04:35:46.778Z,0
2017-10-09T04:36:46.780Z,0
2017-10-09T04:37:46.169Z,0
2017-10-09T04:38:46.461Z,0
2017-10-09T04:39:45.838Z,0
2017-10-09T04:40:46.519Z,0
2017-10-09T04:41:46.458Z,0
2017-10-09T04:42:46.138Z,0
2017-10-09T04:43:46.143Z,0
2017-10-09T04:44:46.462Z,0
2017-10-09T04:45:46.174Z,0
2017-10-09T04:46:45.837Z,0
2017-10-09T04:47:46.467Z,0
2017-10-09T04:48:47.000Z,0
2017-10-09T04:49:46.809Z,0
2017-10-09T04:50:46.741Z,0
2017-10-09T04:51:46.432Z,0
2017-10-09T04:52:46.736Z,0
2017-10-09T04:53:46.424Z,0
2017-10-09T04:54:46.429Z,0
2017-10-09T04:55:46.212Z,0
2017-10-09T04:56:46.123Z,0
2017-10-09T04:57:46.417Z,0
2017-10-09T04:58:45.815Z,0
2017-10-09T04:59:46.726Z,0
2017-10-09T05:00:46.762Z,0
2017-10-09T05:01:46.713Z,0
2017-10-09T05:02:46.711Z,0
2017-10-09T05:03:46.407Z,0
2017-10-09T05:04:48.301Z,0
2017-10-09T05:05:46.431Z,0
2017-10-09T05:06:45.484Z,0
2017-10-09T05:07:46.080Z,0
2017-10-09T05:08:46.087Z,0
2017-10-09T05:09:46.095Z,0
2017-10-09T05:10:46.454Z,0
2017-10-09T05:11:46.072Z,0
2017-10-09T05:12:46.080Z,0
2017-10-09T05:13:46.694Z,0
2017-10-09T05:14:46.069Z,0
2017-10-09T05:15:46.125Z,0
2017-10-09T05:16:46.074Z,0
2017-10-09T05:17:46.872Z,0
2017-10-09T05:18:46.060Z,0
2017-10-09T05:19:51.420Z,0
2017-10-09T05:20:46.184Z,0
2017-10-09T05:21:46.372Z,0
2017-10-09T05:22:46.058Z,0
2017-10-09T05:23:46.069Z,0
2017-10-09T05:24:45.738Z,0
2017-10-09T05:25:46.230Z,0
2017-10-09T05:26:46.351Z,0
2017-10-09T05:27:46.478Z,0
2017-10-09T05:28:46.349Z,0
2017-10-09T05:29:46.350Z,0
2017-10-09T05:30:46.061Z,0
2017-10-09T05:31:46.028Z,0
2017-10-09T05:32:46.340Z,0
2017-10-09T05:33:45.708Z,0
2017-10-09T05:34:45.706Z,0
2017-10-09T05:35:46.098Z,0
2017-10-09T05:36:46.017Z,0
2017-10-09T05:37:46.342Z,0
2017-10-09T05:38:46.631Z,0
2017-10-09T05:39:46.322Z,0
2017-10-09T05:40:46.333Z,0
2017-10-09T05:41:46.619Z,0
2017-10-09T05:42:46.014Z,0
2017-10-09T05:43:46.001Z,0
2017-10-09T05:44:45.711Z,5
2017-10-09T05:45:46.334Z,5
2017-10-09T05:46:46.608Z,0
2017-10-09T05:47:46.301Z,5
2017-10-09T05:48:45.991Z,5
2017-10-09T05:49:46.294Z,5
2017-10-09T05:50:49.986Z,5
2017-10-09T05:51:46.590Z,5
2017-10-09T05:52:46.590Z,5
2017-10-09T05:53:46.279Z,10
2017-10-09T05:54:46.586Z,10
2017-10-09T05:55:46.363Z,10
2017-10-09T05:56:45.971Z,10
2017-10-09T05:57:46.280Z,10
2017-10-09T05:58:45.957Z,10
2017-10-09T05:59:46.622Z,10
2017-10-09T06:00:45.648Z,10
2017-10-09T06:01:46.263Z,10
2017-10-09T06:02:45.338Z,10
2017-10-09T06:03:45.944Z,10
2017-10-09T06:04:45.642Z,10
2017-10-09T06:05:46.302Z,10
2017-10-09T06:06:45.940Z,10
2017-10-09T06:07:45.937Z,10
2017-10-09T06:08:46.243Z,10
2017-10-09T06:09:46.236Z,15
2017-10-09T06:10:45.989Z,15
2017-10-09T06:11:46.560Z,15
2017-10-09T06:12:46.244Z,20
2017-10-09T06:13:46.571Z,20
2017-10-09T06:14:46.565Z,20
2017-10-09T06:15:45.969Z,25
2017-10-09T06:16:46.539Z,25
2017-10-09T06:17:46.254Z,25
2017-10-09T06:18:45.916Z,30
2017-10-09T06:19:46.225Z,30
2017-10-09T06:20:46.767Z,30
2017-10-09T06:21:45.923Z,35
2017-10-09T06:22:46.213Z,35
2017-10-09T06:23:46.520Z,35
2017-10-09T06:24:45.916Z,40
2017-10-09T06:25:46.509Z,40
2017-10-09T06:26:46.216Z,40
2017-10-09T06:27:46.213Z,40
2017-10-09T06:28:45.574Z,40
2017-10-09T06:29:46.518Z,40
2017-10-09T06:30:45.953Z,40
2017-10-09T06:31:46.492Z,40
2017-10-09T06:32:45.874Z,40
2017-10-09T06:33:46.181Z,40
2017-10-09T06:34:46.191Z,45
2017-10-09T06:35:45.921Z,45
2017-10-09T06:36:45.926Z,45
2017-10-09T06:37:46.177Z,45
2017-10-09T06:38:46.481Z,45
2017-10-09T06:39:46.470Z,40
2017-10-09T06:40:46.199Z,40
2017-10-09T06:41:45.559Z,40
2017-10-09T06:42:45.557Z,40
2017-10-09T06:43:45.859Z,40
2017-10-09T06:44:46.173Z,45
2017-10-09T06:45:45.568Z,45
2017-10-09T06:46:45.230Z,50
2017-10-09T06:47:45.557Z,50
2017-10-09T06:48:46.463Z,55
2017-10-09T06:49:45.540Z,50
2017-10-09T06:50:46.159Z,50
2017-10-09T06:51:47.514Z,50
2017-10-09T06:52:46.165Z,50
2017-10-09T06:53:45.835Z,50
2017-10-09T06:54:45.525Z,55
2017-10-09T06:55:46.230Z,55
2017-10-09T06:56:46.449Z,55
2017-10-09T06:57:46.136Z,55
2017-10-09T06:58:46.132Z,60
2017-10-09T06:59:46.130Z,60
2017-10-09T07:00:46.525Z,60
2017-10-09T07:01:46.130Z,60
2017-10-09T07:02:45.841Z,65
2017-10-09T07:03:46.116Z,65
2017-10-09T07:04:46.129Z,70
2017-10-09T07:05:46.234Z,70
2017-10-09T07:06:49.636Z,75
2017-10-09T07:07:46.144Z,75
2017-10-09T07:08:45.192Z,75
2017-10-09T07:09:46.120Z,75
2017-10-09T07:10:46.446Z,75
2017-10-09T07:11:46.123Z,75
2017-10-09T07:12:45.812Z,70
2017-10-09T07:13:45.488Z,70
2017-10-09T07:14:46.423Z,65
2017-10-09T07:15:46.109Z,60
2017-10-09T07:16:46.111Z,60
2017-10-09T07:17:45.484Z,65
2017-10-09T07:18:46.108Z,70
2017-10-09T07:19:46.406Z,70
2017-10-09T07:20:46.201Z,70
2017-10-09T07:21:47.393Z,70
2017-10-09T07:22:45.784Z,75
2017-10-09T07:23:46.086Z,75
2017-10-09T07:24:46.096Z,75
2017-10-09T07:25:46.136Z,80
2017-10-09T07:26:45.780Z,80
2017-10-09T07:27:46.076Z,80
2017-10-09T07:28:45.461Z,75
2017-10-09T07:29:45.456Z,75
2017-10-09T07:30:46.384Z,75
2017-10-09T07:31:46.072Z,75
2017-10-09T07:32:45.770Z,75
2017-10-09T07:33:45.777Z,75
2017-10-09T07:34:45.762Z,75
2017-10-09T07:35:45.774Z,80
2017-10-09T07:36:48.987Z,85
2017-10-09T07:37:45.752Z,90
2017-10-09T07:38:46.374Z,90
2017-10-09T07:39:46.063Z,90
2017-10-09T07:40:46.086Z,85
2017-10-09T07:41:46.063Z,80
2017-10-09T07:42:46.363Z,80
2017-10-09T07:43:46.069Z,75
2017-10-09T07:44:46.064Z,75
2017-10-09T07:45:46.403Z,75
2017-10-09T07:46:46.068Z,80
2017-10-09T07:47:46.351Z,80
2017-10-09T07:48:46.354Z,75
2017-10-09T07:49:45.756Z,75
2017-10-09T07:50:45.811Z,75
2017-10-09T07:51:46.040Z,75
2017-10-09T07:52:46.286Z,85
2017-10-09T07:53:45.730Z,90
2017-10-09T07:54:46.042Z,100
2017-10-09T07:55:45.736Z,100
2017-10-09T07:56:46.347Z,105
2017-10-09T07:57:46.049Z,105
2017-10-09T07:58:46.034Z,105
2017-10-09T07:59:45.733Z,105
2017-10-09T08:00:46.122Z,110
2017-10-09T08:01:45.720Z,110
2017-10-09T08:02:45.742Z,120
2017-10-09T08:03:46.345Z,125
2017-10-09T08:04:45.729Z,130
2017-10-09T08:05:45.732Z,140
2017-10-09T08:06:46.023Z,140
2017-10-09T08:07:46.389Z,135
2017-10-09T08:08:46.339Z,140
2017-10-09T08:09:46.057Z,140
2017-10-09T08:10:46.330Z,145
2017-10-09T08:11:45.708Z,150
2017-10-09T08:12:46.031Z,160
2017-10-09T08:13:46.019Z,165
2017-10-09T08:14:46.020Z,170
2017-10-09T08:15:45.749Z,175
2017-10-09T08:16:46.331Z,175
2017-10-09T08:17:47.130Z,175
2017-10-09T08:18:45.707Z,175
2017-10-09T08:19:46.335Z,170
2017-10-09T08:20:45.716Z,165
2017-10-09T08:21:46.010Z,160
2017-10-09T08:22:48.230Z,150
2017-10-09T08:23:46.016Z,150
2017-10-09T08:24:46.020Z,155
2017-10-09T08:25:45.788Z,155
2017-10-09T08:26:46.328Z,155
2017-10-09T08:27:45.717Z,160
2017-10-09T08:28:46.333Z,165
2017-10-09T08:29:45.715Z,160
2017-10-09T08:30:46.381Z,160
2017-10-09T08:31:46.339Z,160
2017-10-09T08:32:46.069Z,170
2017-10-09T08:33:45.708Z,165
2017-10-09T08:34:46.323Z,170
2017-10-09T08:35:46.028Z,175
2017-10-09T08:36:46.028Z,175
2017-10-09T08:37:45.751Z,175
2017-10-09T08:38:46.042Z,175
2017-10-09T08:39:45.398Z,175
2017-10-09T08:40:45.707Z,165
2017-10-09T08:41:46.032Z,160
2017-10-09T08:42:46.320Z,155
2017-10-09T08:43:45.726Z,155
2017-10-09T08:44:46.013Z,155
2017-10-09T08:45:46.065Z,155
2017-10-09T08:46:46.076Z,155
2017-10-09T08:47:45.394Z,155
2017-10-09T08:48:46.338Z,160
2017-10-09T08:49:45.709Z,160
2017-10-09T08:50:46.352Z,160
2017-10-09T08:51:46.341Z,160
2017-10-09T08:52:47.634Z,165
2017-10-09T08:53:46.013Z,165
2017-10-09T08:54:46.017Z,170
2017-10-09T08:55:46.064Z,175
2017-10-09T08:56:46.015Z,185
2017-10-09T08:57:46.023Z,180
2017-10-09T08:58:46.017Z,185
2017-10-09T08:59:46.322Z,190
2017-10-09T09:00:46.412Z,195
2017-10-09T09:01:46.015Z,205
2017-10-09T09:02:46.329Z,215
2017-10-09T09:03:46.332Z,235
2017-10-09T09:04:46.324Z,240
2017-10-09T09:05:46.335Z,235
2017-10-09T09:06:46.327Z,235
2017-10-09T09:07:46.330Z,225
2017-10-09T09:08:49.532Z,215
2017-10-09T09:09:46.030Z,210
2017-10-09T09:10:45.406Z,210
2017-10-09T09:11:45.725Z,210
2017-10-09T09:12:46.331Z,210
2017-10-09T09:13:46.343Z,215
2017-10-09T09:14:46.333Z,215
2017-10-09T09:15:45.756Z,215
2017-10-09T09:16:45.712Z,215
2017-10-09T09:17:46.353Z,220
2017-10-09T09:18:45.718Z,220
2017-10-09T09:19:46.021Z,225
2017-10-09T09:20:46.051Z,225
2017-10-09T09:21:46.036Z,230
2017-10-09T09:22:46.024Z,230
2017-10-09T09:23:45.667Z,235
2017-10-09T09:24:46.349Z,235
2017-10-09T09:25:45.725Z,235
2017-10-09T09:26:46.040Z,235
2017-10-09T09:27:46.033Z,240
2017-10-09T09:28:45.420Z,240
2017-10-09T09:29:45.417Z,245
2017-10-09T09:30:45.439Z,245
2017-10-09T09:31:45.730Z,245
2017-10-09T09:32:45.728Z,250
2017-10-09T09:33:46.835Z,250
2017-10-09T09:34:46.356Z,250
2017-10-09T09:35:45.531Z,250
2017-10-09T09:36:46.052Z,250
2017-10-09T09:37:46.055Z,255
2017-10-09T09:38:45.750Z,255
2017-10-09T09:39:45.780Z,255
2017-10-09T09:40:46.362Z,260
2017-10-09T09:41:46.064Z,260
2017-10-09T09:42:46.354Z,265
2017-10-09T09:43:45.750Z,265
2017-10-09T09:44:45.445Z,265
2017-10-09T09:45:46.399Z,270
2017-10-09T09:46:45.750Z,270
2017-10-09T09:47:46.374Z,270
2017-10-09T09:48:45.744Z,270
2017-10-09T09:49:47.163Z,270
2017-10-09T09:50:46.101Z,270
2017-10-09T09:51:45.755Z,265
2017-10-09T09:52:46.373Z,260
2017-10-09T09:53:45.755Z,255
2017-10-09T09:54:45.970Z,245
2017-10-09T09:55:46.135Z,235
2017-10-09T09:56:45.758Z,230
2017-10-09T09:57:46.380Z,230
2017-10-09T09:58:45.452Z,230
2017-10-09T09:59:46.381Z,235
2017-10-09T10:00:45.528Z,240
2017-10-09T10:01:45.469Z,235
2017-10-09T10:02:46.394Z,235
2017-10-09T10:03:45.487Z,235
2017-10-09T10:04:46.088Z,235
2017-10-09T10:05:46.134Z,235
2017-10-09T10:06:45.776Z,240
2017-10-09T10:07:46.084Z,240
2017-10-09T10:08:45.789Z,240
2017-10-09T10:09:46.277Z,240
2017-10-09T10:10:45.846Z,245
2017-10-09T10:11:46.399Z,250
2017-10-09T10:12:46.112Z,260
2017-10-09T10:13:45.503Z,260
2017-10-09T10:14:46.405Z,260
2017-10-09T10:15:46.133Z,255
2017-10-09T10:16:46.413Z,250
2017-10-09T10:17:46.580Z,250
2017-10-09T10:18:46.105Z,245
2017-10-09T10:19:46.110Z,250
2017-10-09T10:20:46.137Z,245
2017-10-09T10:21:45.495Z,245
2017-10-09T10:22:46.132Z,250
2017-10-09T10:23:45.802Z,250
2017-10-09T10:24:46.424Z,250
2017-10-09T10:25:46.169Z,250
2017-10-09T10:26:45.815Z,255
2017-10-09T10:27:45.807Z,260
2017-10-09T10:28:45.816Z,270
2017-10-09T10:29:45.504Z,285
2017-10-09T10:30:45.522Z,285
2017-10-09T10:31:46.121Z,280
2017-10-09T10:32:45.817Z,280
2017-10-09T10:33:45.834Z,285
2017-10-09T10:34:46.437Z,280
2017-10-09T10:35:46.192Z,275
2017-10-09T10:36:46.455Z,270
2017-10-09T10:37:45.239Z,265
2017-10-09T10:38:46.234Z,265
2017-10-09T10:39:48.290Z,260
2017-10-09T10:40:45.571Z,260
2017-10-09T10:41:46.457Z,255
2017-10-09T10:42:46.231Z,250
2017-10-09T10:43:45.837Z,250
2017-10-09T10:44:45.843Z,245
2017-10-09T10:45:45.539Z,245
2017-10-09T10:46:46.203Z,245
2017-10-09T10:47:45.977Z,245
2017-10-09T10:48:45.861Z,250
2017-10-09T10:49:45.874Z,245
2017-10-09T10:50:45.846Z,240
2017-10-09T10:51:46.482Z,235
2017-10-09T10:52:46.249Z,230
2017-10-09T10:53:46.476Z,225
2017-10-09T10:54:46.163Z,220
2017-10-09T10:55:46.180Z,220
2017-10-09T10:56:46.472Z,220
2017-10-09T10:57:45.542Z,220
2017-10-09T10:58:45.859Z,225
2017-10-09T10:59:46.190Z,225
2017-10-09T11:00:45.923Z,220
2017-10-09T11:01:45.884Z,210
2017-10-09T11:02:45.863Z,210
2017-10-09T11:03:45.879Z,210
2017-10-09T11:04:46.180Z,215
2017-10-09T11:05:46.549Z,225
2017-10-09T11:06:46.182Z,220
2017-10-09T11:07:46.172Z,220
2017-10-09T11:08:45.872Z,225
2017-10-09T11:09:47.466Z,235
2017-10-09T11:10:46.551Z,235
2017-10-09T11:11:46.180Z,240
2017-10-09T11:12:46.845Z,245
2017-10-09T11:13:46.829Z,245
2017-10-09T11:14:45.893Z,245
2017-10-09T11:15:45.884Z,245
2017-10-09T11:16:46.503Z,250
2017-10-09T11:17:46.537Z,255
2017-10-09T11:18:46.502Z,260
2017-10-09T11:19:46.209Z,265
2017-10-09T11:20:46.268Z,260
2017-10-09T11:21:45.882Z,260
2017-10-09T11:22:45.273Z,260
2017-10-09T11:23:46.510Z,255
2017-10-09T11:24:46.197Z,245
2017-10-09T11:25:47.820Z,245
2017-10-09T11:26:46.215Z,240
2017-10-09T11:27:46.207Z,240
2017-10-09T11:28:46.227Z,235
2017-10-09T11:29:45.592Z,235
2017-10-09T11:30:45.938Z,235
2017-10-09T11:31:46.212Z,235
2017-10-09T11:32:45.901Z,235
2017-10-09T11:33:46.541Z,230
2017-10-09T11:34:46.217Z,230
2017-10-09T11:35:46.293Z,225
2017-10-09T11:36:45.913Z,220
2017-10-09T11:37:46.218Z,220
2017-10-09T11:38:46.542Z,225
2017-10-09T11:39:46.230Z,235
2017-10-09T11:40:48.701Z,235
2017-10-09T11:41:46.266Z,240
2017-10-09T11:42:45.921Z,250
2017-10-09T11:43:46.240Z,250
2017-10-09T11:44:46.230Z,245
2017-10-09T11:45:46.597Z,245
2017-10-09T11:46:46.247Z,240
2017-10-09T11:47:45.930Z,240
2017-10-09T11:48:46.236Z,235
2017-10-09T11:49:46.244Z,235
2017-10-09T11:50:46.303Z,235
2017-10-09T11:51:46.553Z,235
2017-10-09T11:52:45.630Z,235
2017-10-09T11:53:46.550Z,230
2017-10-09T11:54:45.938Z,225
2017-10-09T11:55:46.059Z,220
2017-10-09T11:56:45.639Z,220
2017-10-09T11:57:45.951Z,220
2017-10-09T11:58:45.958Z,220
2017-10-09T11:59:46.264Z,220
2017-10-09T12:00:46.331Z,220
2017-10-09T12:01:45.951Z,225
2017-10-09T12:02:45.959Z,225
2017-10-09T12:03:46.572Z,230
2017-10-09T12:04:45.966Z,235
2017-10-09T12:05:46.314Z,235
2017-10-09T12:06:46.280Z,235
2017-10-09T12:07:46.578Z,240
2017-10-09T12:08:45.966Z,240
2017-10-09T12:09:46.875Z,240
2017-10-09T12:10:46.372Z,240
2017-10-09T12:11:46.284Z,240
2017-10-09T12:12:46.294Z,240
2017-10-09T12:13:46.019Z,235
2017-10-09T12:14:45.973Z,235
2017-10-09T12:15:46.341Z,240
2017-10-09T12:16:46.585Z,235
2017-10-09T12:17:46.593Z,235
2017-10-09T12:18:46.313Z,235
2017-10-09T12:19:45.975Z,235
2017-10-09T12:20:46.366Z,230
2017-10-09T12:21:45.977Z,225
2017-10-09T12:22:46.591Z,220
2017-10-09T12:23:46.611Z,215
2017-10-09T12:24:45.692Z,215
2017-10-09T12:25:46.329Z,210
2017-10-09T12:26:46.600Z,215
2017-10-09T12:27:46.333Z,205
2017-10-09T12:28:46.303Z,205
2017-10-09T12:29:46.298Z,200
2017-10-09T12:30:46.692Z,200
2017-10-09T12:31:46.002Z,200
2017-10-09T12:32:46.622Z,200
2017-10-09T12:33:46.301Z,205
2017-10-09T12:34:46.007Z,215
2017-10-09T12:35:46.649Z,215
2017-10-09T12:36:46.626Z,225
2017-10-09T12:37:46.006Z,225
2017-10-09T12:38:46.010Z,220
2017-10-09T12:39:46.309Z,210
2017-10-09T12:40:50.641Z,210
2017-10-09T12:41:46.321Z,210
2017-10-09T12:42:46.321Z,205
2017-10-09T12:43:46.017Z,205
2017-10-09T12:44:46.015Z,210
2017-10-09T12:45:46.389Z,210
2017-10-09T12:46:46.325Z,210
2017-10-09T12:47:46.631Z,210
2017-10-09T12:48:46.632Z,205
2017-10-09T12:49:46.335Z,205
2017-10-09T12:50:46.643Z,205
2017-10-09T12:51:46.632Z,215
2017-10-09T12:52:46.337Z,215
2017-10-09T12:53:46.026Z,200
2017-10-09T12:54:45.726Z,210
2017-10-09T12:55:46.033Z,220
2017-10-09T12:56:46.653Z,215
2017-10-09T12:57:45.727Z,215
2017-10-09T12:58:46.032Z,210
2017-10-09T12:59:46.350Z,205
2017-10-09T13:00:46.354Z,210
2017-10-09T13:01:46.648Z,210
2017-10-09T13:02:45.730Z,210
2017-10-09T13:03:46.042Z,210
2017-10-09T13:04:46.653Z,205
2017-10-09T13:05:46.374Z,180
2017-10-09T13:06:46.046Z,185
2017-10-09T13:07:46.358Z,195
2017-10-09T13:08:46.355Z,195
2017-10-09T13:09:46.357Z,160
2017-10-09T13:10:46.440Z,155
2017-10-09T13:11:47.536Z,155
2017-10-09T13:12:46.048Z,155
2017-10-09T13:13:46.052Z,160
2017-10-09T13:14:46.669Z,165
2017-10-09T13:15:46.126Z,165
2017-10-09T13:16:46.063Z,170
2017-10-09T13:17:46.860Z,170
2017-10-09T13:18:46.668Z,165
2017-10-09T13:19:46.672Z,160
2017-10-09T13:20:46.070Z,160
2017-10-09T13:21:46.381Z,185
2017-10-09T13:22:46.678Z,170
2017-10-09T13:23:46.385Z,170
2017-10-09T13:24:46.066Z,155
2017-10-09T13:25:46.379Z,150
2017-10-09T13:26:46.564Z,150
2017-10-09T13:27:46.080Z,150
2017-10-09T13:28:46.066Z,160
2017-10-09T13:29:46.678Z,145
2017-10-09T13:30:46.473Z,145
2017-10-09T13:31:46.377Z,155
2017-10-09T13:32:46.382Z,140
2017-10-09T13:33:46.417Z,140
2017-10-09T13:34:46.382Z,140
2017-10-09T13:35:46.110Z,145
2017-10-09T13:36:46.381Z,145
2017-10-09T13:37:46.378Z,145
2017-10-09T13:38:46.072Z,145
2017-10-09T13:39:45.761Z,140
2017-10-09T13:40:46.092Z,150
2017-10-09T13:41:51.446Z,135
2017-10-09T13:42:47.807Z,130
2017-10-09T13:43:47.861Z,125
2017-10-09T13:44:48.391Z,125
2017-10-09T13:45:47.545Z,125
2017-10-09T13:46:48.613Z,125
2017-10-09T13:47:47.570Z,130
2017-10-09T13:48:46.381Z,135
2017-10-09T13:49:46.386Z,135
2017-10-09T13:50:46.387Z,135
2017-10-09T13:51:46.079Z,140
2017-10-09T13:52:46.389Z,145
2017-10-09T13:53:46.073Z,145
2017-10-09T13:54:46.383Z,145
2017-10-09T13:55:46.384Z,150
2017-10-09T13:56:46.078Z,145
2017-10-09T13:57:46.392Z,155
2017-10-09T13:58:46.693Z,145
2017-10-09T13:59:46.697Z,150
2017-10-09T14:00:46.696Z,155
2017-10-09T14:01:46.696Z,155
2017-10-09T14:02:46.076Z,145
2017-10-09T14:03:46.692Z,140
2017-10-09T14:04:46.082Z,145
2017-10-09T14:05:45.791Z,150
2017-10-09T14:06:46.390Z,140
2017-10-09T14:07:46.085Z,140
2017-10-09T14:08:45.773Z,140
2017-10-09T14:09:46.401Z,135
2017-10-09T14:10:46.451Z,135
2017-10-09T14:11:46.398Z,135
2017-10-09T14:12:47.089Z,150
2017-10-09T14:13:46.085Z,145
2017-10-09T14:14:46.699Z,145